sensor_id;sensor_type;location;lat;lon;timestamp;temperature;humidity
8888;DHT22;4480;52.370;9.748;2022-08-19T00:01:14;19.40;99.90
8888;DHT22;4480;52.370;9.748;2022-08-19T00:03:43;19.30;99.90
8888;DHT22;4480;52.370;9.748;2022-08-19T00:06:10;19.30;99.90
8888;DHT22;4480;52.370;9.748;2022-08-19T00:08:37;19.30;99.90
8888;DHT22;4480;52.370;9.748;2022-08-19T00:11:05;19.30;99.90
8888;DHT22;4480;52.370;9.748;2022-08-19T00:13:33;19.30;99.90
8888;DHT22;4480;52.370;9.748;2022-08-19T00:16:01;19.30;99.90
8888;DHT22;4480;52.370;9.748;2022-08-19T00:18:28;19.30;99.90
8888;DHT22;4480;52.370;9.748;2022-08-19T00:20:57;19.30;99.90
8888;DHT22;4480;52.370;9.748;2022-08-19T00:23:25;19.20;99.90
8888;DHT22;4480;52.370;9.748;2022-08-19T00:25:53;19.20;99.90
8888;DHT22;4480;52.370;9.748;2022-08-19T00:28:20;19.20;99.90
8888;DHT22;4480;52.370;9.748;2022-08-19T00:30:47;19.20;99.90
8888;DHT22;4480;52.370;9.748;2022-08-19T00:33:14;19.20;99.90
8888;DHT22;4480;52.370;9.748;2022-08-19T00:35:42;19.10;99.90
8888;DHT22;4480;52.370;9.748;2022-08-19T00:38:10;19.10;99.90
8888;DHT22;4480;52.370;9.748;2022-08-19T00:40:38;19.10;99.90
8888;DHT22;4480;52.370;9.748;2022-08-19T00:43:08;19.00;99.90
8888;DHT22;4480;52.370;9.748;2022-08-19T00:45:36;19.00;99.90
8888;DHT22;4480;52.370;9.748;2022-08-19T00:48:03;18.90;99.90
8888;DHT22;4480;52.370;9.748;2022-08-19T00:50:31;18.90;99.90
8888;DHT22;4480;52.370;9.748;2022-08-19T00:52:59;18.90;99.90
8888;DHT22;4480;52.370;9.748;2022-08-19T00:55:31;18.80;99.90
8888;DHT22;4480;52.370;9.748;2022-08-19T00:58:02;18.80;99.90
8888;DHT22;4480;52.370;9.748;2022-08-19T01:00:32;18.80;99.90
8888;DHT22;4480;52.370;9.748;2022-08-19T01:03:02;18.70;99.90
8888;DHT22;4480;52.370;9.748;2022-08-19T01:05:30;18.70;99.90
8888;DHT22;4480;52.370;9.748;2022-08-19T01:07:59;18.70;99.90
8888;DHT22;4480;52.370;9.748;2022-08-19T01:10:31;18.60;99.90
8888;DHT22;4480;52.370;9.748;2022-08-19T01:13:00;18.60;99.90
8888;DHT22;4480;52.370;9.748;2022-08-19T01:15:31;18.60;99.90
8888;DHT22;4480;52.370;9.748;2022-08-19T01:18:04;18.60;99.90
8888;DHT22;4480;52.370;9.748;2022-08-19T01:20:33;18.60;99.90
8888;DHT22;4480;52.370;9.748;2022-08-19T01:23:02;18.50;99.90
8888;DHT22;4480;52.370;9.748;2022-08-19T01:25:33;18.50;99.90
8888;DHT22;4480;52.370;9.748;2022-08-19T01:28:02;18.50;99.90
8888;DHT22;4480;52.370;9.748;2022-08-19T01:30:32;18.50;99.90
8888;DHT22;4480;52.370;9.748;2022-08-19T01:33:00;18.50;99.90
8888;DHT22;4480;52.370;9.748;2022-08-19T01:35:30;18.50;99.90
8888;DHT22;4480;52.370;9.748;2022-08-19T01:38:01;18.50;99.90
8888;DHT22;4480;52.370;9.748;2022-08-19T01:40:35;18.50;99.90
8888;DHT22;4480;52.370;9.748;2022-08-19T01:43:04;18.50;99.90
8888;DHT22;4480;52.370;9.748;2022-08-19T01:45:34;18.50;99.90
8888;DHT22;4480;52.370;9.748;2022-08-19T01:48:01;18.50;99.90
8888;DHT22;4480;52.370;9.748;2022-08-19T01:50:30;18.50;99.90
8888;DHT22;4480;52.370;9.748;2022-08-19T01:52:57;18.50;99.90
8888;DHT22;4480;52.370;9.748;2022-08-19T01:55:27;18.40;99.90
8888;DHT22;4480;52.370;9.748;2022-08-19T01:57:56;18.40;99.90
8888;DHT22;4480;52.370;9.748;2022-08-19T02:00:26;18.40;99.90
8888;DHT22;4480;52.370;9.748;2022-08-19T02:02:54;18.40;99.90
8888;DHT22;4480;52.370;9.748;2022-08-19T02:05:21;18.40;99.90
8888;DHT22;4480;52.370;9.748;2022-08-19T02:07:49;18.30;99.90
8888;DHT22;4480;52.370;9.748;2022-08-19T02:10:20;18.30;99.90
8888;DHT22;4480;52.370;9.748;2022-08-19T02:12:49;18.30;99.90
8888;DHT22;4480;52.370;9.748;2022-08-19T02:15:17;18.30;99.90
8888;DHT22;4480;52.370;9.748;2022-08-19T02:17:46;18.30;99.90
8888;DHT22;4480;52.370;9.748;2022-08-19T02:20:14;18.30;99.90
8888;DHT22;4480;52.370;9.748;2022-08-19T02:22:42;18.30;99.90
8888;DHT22;4480;52.370;9.748;2022-08-19T02:25:11;18.30;99.90
8888;DHT22;4480;52.370;9.748;2022-08-19T02:27:39;18.30;99.90
8888;DHT22;4480;52.370;9.748;2022-08-19T02:30:12;18.30;99.90
8888;DHT22;4480;52.370;9.748;2022-08-19T02:32:41;18.30;99.90
8888;DHT22;4480;52.370;9.748;2022-08-19T02:35:09;18.30;99.90
8888;DHT22;4480;52.370;9.748;2022-08-19T02:37:36;18.30;99.90
8888;DHT22;4480;52.370;9.748;2022-08-19T02:40:21;18.40;99.90
8888;DHT22;4480;52.370;9.748;2022-08-19T02:42:48;18.30;99.90
8888;DHT22;4480;52.370;9.748;2022-08-19T02:45:17;18.30;99.90
8888;DHT22;4480;52.370;9.748;2022-08-19T02:47:45;18.40;99.90
8888;DHT22;4480;52.370;9.748;2022-08-19T02:50:12;18.40;99.90
8888;DHT22;4480;52.370;9.748;2022-08-19T02:52:40;18.40;99.90
8888;DHT22;4480;52.370;9.748;2022-08-19T02:55:08;18.40;99.90
8888;DHT22;4480;52.370;9.748;2022-08-19T02:57:35;18.30;99.90
8888;DHT22;4480;52.370;9.748;2022-08-19T03:00:05;18.30;99.90
8888;DHT22;4480;52.370;9.748;2022-08-19T03:02:34;18.30;99.90
8888;DHT22;4480;52.370;9.748;2022-08-19T03:05:03;18.30;99.90
8888;DHT22;4480;52.370;9.748;2022-08-19T03:07:30;18.40;99.90
8888;DHT22;4480;52.370;9.748;2022-08-19T03:09:58;18.30;99.90
8888;DHT22;4480;52.370;9.748;2022-08-19T03:12:25;18.30;99.90
8888;DHT22;4480;52.370;9.748;2022-08-19T03:14:52;18.30;99.90
8888;DHT22;4480;52.370;9.748;2022-08-19T03:17:19;18.30;99.90
8888;DHT22;4480;52.370;9.748;2022-08-19T03:19:48;18.30;99.90
8888;DHT22;4480;52.370;9.748;2022-08-19T03:22:15;18.20;99.90
8888;DHT22;4480;52.370;9.748;2022-08-19T03:24:42;18.20;99.90
8888;DHT22;4480;52.370;9.748;2022-08-19T03:27:09;18.20;99.90
8888;DHT22;4480;52.370;9.748;2022-08-19T03:29:38;18.20;99.90
8888;DHT22;4480;52.370;9.748;2022-08-19T03:32:05;18.20;99.90
8888;DHT22;4480;52.370;9.748;2022-08-19T03:34:34;18.20;99.90
8888;DHT22;4480;52.370;9.748;2022-08-19T03:37:06;18.20;99.90
8888;DHT22;4480;52.370;9.748;2022-08-19T03:39:35;18.20;99.90
8888;DHT22;4480;52.370;9.748;2022-08-19T03:42:03;18.20;99.90
8888;DHT22;4480;52.370;9.748;2022-08-19T03:44:31;18.20;99.90
8888;DHT22;4480;52.370;9.748;2022-08-19T03:46:59;18.10;99.90
8888;DHT22;4480;52.370;9.748;2022-08-19T03:49:28;18.10;99.90
8888;DHT22;4480;52.370;9.748;2022-08-19T03:51:57;18.10;99.90
8888;DHT22;4480;52.370;9.748;2022-08-19T03:54:27;18.10;99.90
8888;DHT22;4480;52.370;9.748;2022-08-19T03:56:56;18.00;99.90
8888;DHT22;4480;52.370;9.748;2022-08-19T03:59:27;18.00;99.90
8888;DHT22;4480;52.370;9.748;2022-08-19T04:01:57;18.00;99.90
8888;DHT22;4480;52.370;9.748;2022-08-19T04:04:25;18.00;99.90
8888;DHT22;4480;52.370;9.748;2022-08-19T04:10:07;17.90;99.90
8888;DHT22;4480;52.370;9.748;2022-08-19T04:12:34;17.80;99.90
8888;DHT22;4480;52.370;9.748;2022-08-19T04:15:03;17.80;99.90
8888;DHT22;4480;52.370;9.748;2022-08-19T04:17:31;17.80;99.90
8888;DHT22;4480;52.370;9.748;2022-08-19T04:19:59;17.80;99.90
8888;DHT22;4480;52.370;9.748;2022-08-19T04:22:27;17.70;99.90
8888;DHT22;4480;52.370;9.748;2022-08-19T04:24:54;17.70;99.90
8888;DHT22;4480;52.370;9.748;2022-08-19T04:27:22;17.70;99.90
8888;DHT22;4480;52.370;9.748;2022-08-19T04:29:50;17.70;99.90
8888;DHT22;4480;52.370;9.748;2022-08-19T04:32:18;17.70;99.90
8888;DHT22;4480;52.370;9.748;2022-08-19T04:34:45;17.70;99.90
8888;DHT22;4480;52.370;9.748;2022-08-19T04:37:12;17.60;99.90
8888;DHT22;4480;52.370;9.748;2022-08-19T04:39:39;17.60;99.90
8888;DHT22;4480;52.370;9.748;2022-08-19T04:42:31;17.60;99.90
8888;DHT22;4480;52.370;9.748;2022-08-19T04:45:10;17.60;99.90
8888;DHT22;4480;52.370;9.748;2022-08-19T04:47:40;17.60;99.90
8888;DHT22;4480;52.370;9.748;2022-08-19T04:50:08;17.60;99.90
8888;DHT22;4480;52.370;9.748;2022-08-19T04:52:37;17.60;99.90
8888;DHT22;4480;52.370;9.748;2022-08-19T04:55:09;17.60;99.90
8888;DHT22;4480;52.370;9.748;2022-08-19T04:57:37;17.60;99.90
8888;DHT22;4480;52.370;9.748;2022-08-19T05:00:07;17.60;99.90
8888;DHT22;4480;52.370;9.748;2022-08-19T05:02:34;17.60;99.90
8888;DHT22;4480;52.370;9.748;2022-08-19T05:05:02;17.60;99.90
8888;DHT22;4480;52.370;9.748;2022-08-19T05:07:29;17.60;99.90
8888;DHT22;4480;52.370;9.748;2022-08-19T05:09:56;17.60;99.90
8888;DHT22;4480;52.370;9.748;2022-08-19T05:12:24;17.60;99.90
8888;DHT22;4480;52.370;9.748;2022-08-19T05:14:53;17.70;99.90
8888;DHT22;4480;52.370;9.748;2022-08-19T05:17:22;17.70;99.90
8888;DHT22;4480;52.370;9.748;2022-08-19T05:19:49;17.70;99.90
8888;DHT22;4480;52.370;9.748;2022-08-19T05:22:34;17.70;99.90
8888;DHT22;4480;52.370;9.748;2022-08-19T05:25:04;17.70;99.90
8888;DHT22;4480;52.370;9.748;2022-08-19T05:27:32;17.70;99.90
8888;DHT22;4480;52.370;9.748;2022-08-19T05:30:02;17.80;99.90
8888;DHT22;4480;52.370;9.748;2022-08-19T05:32:30;17.80;99.90
8888;DHT22;4480;52.370;9.748;2022-08-19T05:34:57;17.80;99.90
8888;DHT22;4480;52.370;9.748;2022-08-19T05:37:25;17.90;99.90
8888;DHT22;4480;52.370;9.748;2022-08-19T05:39:53;17.80;99.90
8888;DHT22;4480;52.370;9.748;2022-08-19T05:42:21;17.80;99.90
8888;DHT22;4480;52.370;9.748;2022-08-19T05:44:50;17.90;99.90
8888;DHT22;4480;52.370;9.748;2022-08-19T05:47:19;17.90;99.90
8888;DHT22;4480;52.370;9.748;2022-08-19T05:49:47;17.90;99.90
8888;DHT22;4480;52.370;9.748;2022-08-19T05:52:15;17.90;99.90
8888;DHT22;4480;52.370;9.748;2022-08-19T05:54:43;17.90;99.90
8888;DHT22;4480;52.370;9.748;2022-08-19T05:57:14;17.90;99.90
8888;DHT22;4480;52.370;9.748;2022-08-19T05:59:41;17.90;99.90
8888;DHT22;4480;52.370;9.748;2022-08-19T06:02:09;18.00;99.90
8888;DHT22;4480;52.370;9.748;2022-08-19T06:04:38;18.00;99.90
8888;DHT22;4480;52.370;9.748;2022-08-19T06:07:08;18.00;99.90
8888;DHT22;4480;52.370;9.748;2022-08-19T06:09:36;18.10;99.90
8888;DHT22;4480;52.370;9.748;2022-08-19T06:12:04;18.10;99.90
8888;DHT22;4480;52.370;9.748;2022-08-19T06:14:33;18.20;99.90
8888;DHT22;4480;52.370;9.748;2022-08-19T06:17:02;18.20;99.90
8888;DHT22;4480;52.370;9.748;2022-08-19T06:19:30;18.30;99.90
8888;DHT22;4480;52.370;9.748;2022-08-19T06:22:00;18.30;99.90
8888;DHT22;4480;52.370;9.748;2022-08-19T06:24:29;18.40;99.90
8888;DHT22;4480;52.370;9.748;2022-08-19T06:26:58;18.40;99.90
8888;DHT22;4480;52.370;9.748;2022-08-19T06:29:27;18.40;99.90
8888;DHT22;4480;52.370;9.748;2022-08-19T06:31:57;18.40;99.90
8888;DHT22;4480;52.370;9.748;2022-08-19T06:34:25;18.50;99.90
8888;DHT22;4480;52.370;9.748;2022-08-19T06:36:55;18.40;99.90
8888;DHT22;4480;52.370;9.748;2022-08-19T06:39:26;18.40;99.90
8888;DHT22;4480;52.370;9.748;2022-08-19T06:41:55;18.50;99.90
8888;DHT22;4480;52.370;9.748;2022-08-19T06:44:25;18.50;99.90
8888;DHT22;4480;52.370;9.748;2022-08-19T06:46:53;18.50;99.90
8888;DHT22;4480;52.370;9.748;2022-08-19T06:49:21;18.50;99.90
8888;DHT22;4480;52.370;9.748;2022-08-19T06:51:49;18.60;99.90
8888;DHT22;4480;52.370;9.748;2022-08-19T06:54:17;18.60;99.90
8888;DHT22;4480;52.370;9.748;2022-08-19T06:56:46;18.70;99.90
8888;DHT22;4480;52.370;9.748;2022-08-19T06:59:17;18.70;99.90
8888;DHT22;4480;52.370;9.748;2022-08-19T07:01:46;18.70;99.90
8888;DHT22;4480;52.370;9.748;2022-08-19T07:04:15;18.70;99.90
8888;DHT22;4480;52.370;9.748;2022-08-19T07:06:43;18.80;99.90
8888;DHT22;4480;52.370;9.748;2022-08-19T07:09:14;18.80;99.90
8888;DHT22;4480;52.370;9.748;2022-08-19T07:11:46;18.80;99.90
8888;DHT22;4480;52.370;9.748;2022-08-19T07:14:16;18.80;99.90
8888;DHT22;4480;52.370;9.748;2022-08-19T07:16:44;18.80;99.90
8888;DHT22;4480;52.370;9.748;2022-08-19T07:19:13;18.80;99.90
8888;DHT22;4480;52.370;9.748;2022-08-19T07:21:41;18.90;99.90
8888;DHT22;4480;52.370;9.748;2022-08-19T07:24:09;18.90;99.90
8888;DHT22;4480;52.370;9.748;2022-08-19T07:26:39;18.90;99.90
8888;DHT22;4480;52.370;9.748;2022-08-19T07:29:10;19.10;99.90
8888;DHT22;4480;52.370;9.748;2022-08-19T07:31:39;19.20;99.90
8888;DHT22;4480;52.370;9.748;2022-08-19T07:34:10;19.40;99.90
8888;DHT22;4480;52.370;9.748;2022-08-19T07:36:40;19.40;99.90
8888;DHT22;4480;52.370;9.748;2022-08-19T07:39:11;19.60;99.90
8888;DHT22;4480;52.370;9.748;2022-08-19T07:41:38;19.60;99.90
8888;DHT22;4480;52.370;9.748;2022-08-19T07:44:08;19.70;99.90
8888;DHT22;4480;52.370;9.748;2022-08-19T07:46:37;19.70;99.90
8888;DHT22;4480;52.370;9.748;2022-08-19T07:49:06;19.70;99.90
8888;DHT22;4480;52.370;9.748;2022-08-19T07:51:35;19.80;99.90
8888;DHT22;4480;52.370;9.748;2022-08-19T07:54:03;19.80;99.90
8888;DHT22;4480;52.370;9.748;2022-08-19T07:56:30;19.90;99.90
8888;DHT22;4480;52.370;9.748;2022-08-19T07:58:57;20.00;99.90
8888;DHT22;4480;52.370;9.748;2022-08-19T08:01:27;20.20;99.90
8888;DHT22;4480;52.370;9.748;2022-08-19T08:03:55;20.30;99.40
8888;DHT22;4480;52.370;9.748;2022-08-19T08:06:40;20.30;98.90
8888;DHT22;4480;52.370;9.748;2022-08-19T08:09:39;20.30;98.50
8888;DHT22;4480;52.370;9.748;2022-08-19T08:12:10;20.20;98.30
8888;DHT22;4480;52.370;9.748;2022-08-19T08:14:40;20.20;98.30
8888;DHT22;4480;52.370;9.748;2022-08-19T08:17:10;20.30;98.20
8888;DHT22;4480;52.370;9.748;2022-08-19T08:19:38;20.40;98.00
8888;DHT22;4480;52.370;9.748;2022-08-19T08:22:07;20.50;97.50
8888;DHT22;4480;52.370;9.748;2022-08-19T08:24:54;20.50;97.10
8888;DHT22;4480;52.370;9.748;2022-08-19T08:27:24;20.50;96.70
8888;DHT22;4480;52.370;9.748;2022-08-19T08:29:51;20.60;96.40
8888;DHT22;4480;52.370;9.748;2022-08-19T08:32:20;20.80;95.90
8888;DHT22;4480;52.370;9.748;2022-08-19T08:34:47;21.00;95.00
8888;DHT22;4480;52.370;9.748;2022-08-19T08:37:14;21.20;94.40
8888;DHT22;4480;52.370;9.748;2022-08-19T08:39:41;21.30;93.30
8888;DHT22;4480;52.370;9.748;2022-08-19T08:42:14;21.30;92.50
8888;DHT22;4480;52.370;9.748;2022-08-19T08:44:47;21.30;91.80
8888;DHT22;4480;52.370;9.748;2022-08-19T08:47:20;21.10;91.30
8888;DHT22;4480;52.370;9.748;2022-08-19T08:49:51;21.10;91.50
8888;DHT22;4480;52.370;9.748;2022-08-19T08:52:23;21.10;91.50
8888;DHT22;4480;52.370;9.748;2022-08-19T08:54:54;21.10;91.50
8888;DHT22;4480;52.370;9.748;2022-08-19T08:57:26;21.10;91.40
8888;DHT22;4480;52.370;9.748;2022-08-19T08:59:57;21.20;91.20
8888;DHT22;4480;52.370;9.748;2022-08-19T09:02:26;21.30;90.90
8888;DHT22;4480;52.370;9.748;2022-08-19T09:04:54;21.50;90.30
8888;DHT22;4480;52.370;9.748;2022-08-19T09:07:28;21.80;89.80
8888;DHT22;4480;52.370;9.748;2022-08-19T09:10:06;22.10;87.30
8888;DHT22;4480;52.370;9.748;2022-08-19T09:12:41;22.30;84.60
8888;DHT22;4480;52.370;9.748;2022-08-19T09:15:12;22.40;83.00
8888;DHT22;4480;52.370;9.748;2022-08-19T09:17:41;22.50;82.00
8888;DHT22;4480;52.370;9.748;2022-08-19T09:20:16;22.60;81.10
8888;DHT22;4480;52.370;9.748;2022-08-19T09:22:44;22.70;80.50
8888;DHT22;4480;52.370;9.748;2022-08-19T09:25:15;22.70;79.60
8888;DHT22;4480;52.370;9.748;2022-08-19T09:27:43;22.70;79.20
8888;DHT22;4480;52.370;9.748;2022-08-19T09:30:15;22.70;78.70
8888;DHT22;4480;52.370;9.748;2022-08-19T09:32:44;22.80;78.30
8888;DHT22;4480;52.370;9.748;2022-08-19T09:35:12;22.80;77.90
8888;DHT22;4480;52.370;9.748;2022-08-19T09:37:40;22.90;77.00
8888;DHT22;4480;52.370;9.748;2022-08-19T09:40:09;23.00;76.50
8888;DHT22;4480;52.370;9.748;2022-08-19T09:42:36;23.10;76.00
8888;DHT22;4480;52.370;9.748;2022-08-19T09:45:05;23.10;74.80
8888;DHT22;4480;52.370;9.748;2022-08-19T09:47:32;23.20;73.80
8888;DHT22;4480;52.370;9.748;2022-08-19T09:50:04;23.30;73.40
8888;DHT22;4480;52.370;9.748;2022-08-19T09:52:31;23.40;72.30
8888;DHT22;4480;52.370;9.748;2022-08-19T09:54:58;23.50;70.70
8888;DHT22;4480;52.370;9.748;2022-08-19T09:57:26;23.50;69.80
8888;DHT22;4480;52.370;9.748;2022-08-19T09:59:53;23.50;69.50
8888;DHT22;4480;52.370;9.748;2022-08-19T10:02:20;23.50;69.30
8888;DHT22;4480;52.370;9.748;2022-08-19T10:04:47;23.50;68.70
8888;DHT22;4480;52.370;9.748;2022-08-19T10:07:33;23.60;68.40
8888;DHT22;4480;52.370;9.748;2022-08-19T10:10:01;23.60;68.00
8888;DHT22;4480;52.370;9.748;2022-08-19T10:12:28;23.70;67.50
8888;DHT22;4480;52.370;9.748;2022-08-19T10:14:55;23.60;67.10
8888;DHT22;4480;52.370;9.748;2022-08-19T10:17:22;23.50;67.20
8888;DHT22;4480;52.370;9.748;2022-08-19T10:19:51;23.40;67.20
8888;DHT22;4480;52.370;9.748;2022-08-19T10:22:19;23.50;66.60
8888;DHT22;4480;52.370;9.748;2022-08-19T10:24:47;23.60;65.90
8888;DHT22;4480;52.370;9.748;2022-08-19T10:27:15;23.80;65.60
8888;DHT22;4480;52.370;9.748;2022-08-19T10:29:42;23.90;65.10
8888;DHT22;4480;52.370;9.748;2022-08-19T10:32:09;24.00;64.40
8888;DHT22;4480;52.370;9.748;2022-08-19T10:34:37;24.00;63.60
8888;DHT22;4480;52.370;9.748;2022-08-19T10:37:05;24.10;63.50
8888;DHT22;4480;52.370;9.748;2022-08-19T10:39:33;24.20;63.10
8888;DHT22;4480;52.370;9.748;2022-08-19T10:42:06;24.40;62.40
8888;DHT22;4480;52.370;9.748;2022-08-19T10:44:36;24.60;61.00
8888;DHT22;4480;52.370;9.748;2022-08-19T10:47:04;24.70;60.10
8888;DHT22;4480;52.370;9.748;2022-08-19T10:49:31;24.90;59.70
8888;DHT22;4480;52.370;9.748;2022-08-19T10:52:19;25.00;58.50
8888;DHT22;4480;52.370;9.748;2022-08-19T10:55:00;25.10;57.60
8888;DHT22;4480;52.370;9.748;2022-08-19T10:57:46;25.10;56.60
8888;DHT22;4480;52.370;9.748;2022-08-19T11:00:14;25.10;56.10
8888;DHT22;4480;52.370;9.748;2022-08-19T11:02:41;25.00;55.90
8888;DHT22;4480;52.370;9.748;2022-08-19T11:05:08;25.00;56.00
8888;DHT22;4480;52.370;9.748;2022-08-19T11:07:37;25.00;55.70
8888;DHT22;4480;52.370;9.748;2022-08-19T11:10:05;25.10;55.50
8888;DHT22;4480;52.370;9.748;2022-08-19T11:12:33;25.20;55.10
8888;DHT22;4480;52.370;9.748;2022-08-19T11:15:07;25.20;54.50
8888;DHT22;4480;52.370;9.748;2022-08-19T11:17:37;25.10;54.20
8888;DHT22;4480;52.370;9.748;2022-08-19T11:20:10;25.10;54.10
8888;DHT22;4480;52.370;9.748;2022-08-19T11:22:38;25.20;54.20
8888;DHT22;4480;52.370;9.748;2022-08-19T11:25:06;25.40;53.40
8888;DHT22;4480;52.370;9.748;2022-08-19T11:27:38;25.40;53.20
8888;DHT22;4480;52.370;9.748;2022-08-19T11:30:11;25.50;53.00
8888;DHT22;4480;52.370;9.748;2022-08-19T11:32:39;25.60;53.50
8888;DHT22;4480;52.370;9.748;2022-08-19T11:35:06;25.70;52.80
8888;DHT22;4480;52.370;9.748;2022-08-19T11:37:34;25.70;52.50
8888;DHT22;4480;52.370;9.748;2022-08-19T11:40:04;25.70;52.20
8888;DHT22;4480;52.370;9.748;2022-08-19T11:42:32;25.70;52.40
8888;DHT22;4480;52.370;9.748;2022-08-19T11:45:18;25.70;52.40
8888;DHT22;4480;52.370;9.748;2022-08-19T11:47:46;25.70;52.70
8888;DHT22;4480;52.370;9.748;2022-08-19T11:50:14;25.80;52.20
8888;DHT22;4480;52.370;9.748;2022-08-19T11:52:42;25.90;51.90
8888;DHT22;4480;52.370;9.748;2022-08-19T11:55:09;26.10;51.50
8888;DHT22;4480;52.370;9.748;2022-08-19T11:57:37;26.50;50.80
8888;DHT22;4480;52.370;9.748;2022-08-19T12:00:05;26.90;49.90
8888;DHT22;4480;52.370;9.748;2022-08-19T12:02:34;27.30;48.90
8888;DHT22;4480;52.370;9.748;2022-08-19T12:05:02;27.40;47.90
8888;DHT22;4480;52.370;9.748;2022-08-19T12:07:30;27.70;47.60
8888;DHT22;4480;52.370;9.748;2022-08-19T12:09:59;28.10;46.80
8888;DHT22;4480;52.370;9.748;2022-08-19T12:12:26;28.40;46.00
8888;DHT22;4480;52.370;9.748;2022-08-19T12:14:54;28.60;45.50
8888;DHT22;4480;52.370;9.748;2022-08-19T12:17:24;28.90;45.10
8888;DHT22;4480;52.370;9.748;2022-08-19T12:19:53;29.10;44.50
8888;DHT22;4480;52.370;9.748;2022-08-19T12:22:21;29.20;44.10
8888;DHT22;4480;52.370;9.748;2022-08-19T12:24:48;29.20;43.90
8888;DHT22;4480;52.370;9.748;2022-08-19T12:27:18;29.00;44.10
8888;DHT22;4480;52.370;9.748;2022-08-19T12:29:45;28.70;44.60
8888;DHT22;4480;52.370;9.748;2022-08-19T12:32:12;28.30;45.30
8888;DHT22;4480;52.370;9.748;2022-08-19T12:34:39;27.90;46.10
8888;DHT22;4480;52.370;9.748;2022-08-19T12:37:09;27.50;47.40
8888;DHT22;4480;52.370;9.748;2022-08-19T12:39:38;27.20;47.30
8888;DHT22;4480;52.370;9.748;2022-08-19T12:42:07;26.90;47.80
8888;DHT22;4480;52.370;9.748;2022-08-19T12:44:34;26.90;48.10
8888;DHT22;4480;52.370;9.748;2022-08-19T12:47:02;26.90;48.20
8888;DHT22;4480;52.370;9.748;2022-08-19T12:51:59;26.90;47.70
8888;DHT22;4480;52.370;9.748;2022-08-19T12:54:27;26.90;47.50
8888;DHT22;4480;52.370;9.748;2022-08-19T12:56:56;26.90;47.60
8888;DHT22;4480;52.370;9.748;2022-08-19T12:59:24;26.90;47.90
8888;DHT22;4480;52.370;9.748;2022-08-19T13:01:51;26.90;48.50
8888;DHT22;4480;52.370;9.748;2022-08-19T13:04:18;26.80;47.70
8888;DHT22;4480;52.370;9.748;2022-08-19T13:06:45;26.70;47.10
8888;DHT22;4480;52.370;9.748;2022-08-19T13:09:13;26.70;47.00
8888;DHT22;4480;52.370;9.748;2022-08-19T13:11:41;26.80;46.90
8888;DHT22;4480;52.370;9.748;2022-08-19T13:14:09;26.80;46.60
8888;DHT22;4480;52.370;9.748;2022-08-19T13:16:37;26.80;46.30
8888;DHT22;4480;52.370;9.748;2022-08-19T13:19:04;26.90;46.20
8888;DHT22;4480;52.370;9.748;2022-08-19T13:21:33;26.90;46.10
8888;DHT22;4480;52.370;9.748;2022-08-19T13:24:00;27.00;46.00
8888;DHT22;4480;52.370;9.748;2022-08-19T13:26:27;26.90;46.00
8888;DHT22;4480;52.370;9.748;2022-08-19T13:28:56;26.90;46.10
8888;DHT22;4480;52.370;9.748;2022-08-19T13:31:41;27.00;46.00
8888;DHT22;4480;52.370;9.748;2022-08-19T13:34:29;27.00;45.80
8888;DHT22;4480;52.370;9.748;2022-08-19T13:36:57;27.10;45.60
8888;DHT22;4480;52.370;9.748;2022-08-19T13:39:25;27.10;45.30
8888;DHT22;4480;52.370;9.748;2022-08-19T13:41:53;27.10;45.20
8888;DHT22;4480;52.370;9.748;2022-08-19T13:44:21;27.20;45.20
8888;DHT22;4480;52.370;9.748;2022-08-19T13:46:49;27.40;44.80
8888;DHT22;4480;52.370;9.748;2022-08-19T13:49:18;27.50;44.60
8888;DHT22;4480;52.370;9.748;2022-08-19T13:51:46;27.50;44.80
8888;DHT22;4480;52.370;9.748;2022-08-19T13:54:13;27.60;44.80
8888;DHT22;4480;52.370;9.748;2022-08-19T13:56:41;27.60;44.60
8888;DHT22;4480;52.370;9.748;2022-08-19T13:59:09;27.60;44.40
8888;DHT22;4480;52.370;9.748;2022-08-19T14:01:38;27.50;44.40
8888;DHT22;4480;52.370;9.748;2022-08-19T14:04:06;27.50;44.40
8888;DHT22;4480;52.370;9.748;2022-08-19T14:06:33;27.50;44.20
8888;DHT22;4480;52.370;9.748;2022-08-19T14:09:00;27.50;44.30
8888;DHT22;4480;52.370;9.748;2022-08-19T14:11:29;27.50;44.60
8888;DHT22;4480;52.370;9.748;2022-08-19T14:13:56;27.40;44.80
8888;DHT22;4480;52.370;9.748;2022-08-19T14:16:23;27.40;45.00
8888;DHT22;4480;52.370;9.748;2022-08-19T14:18:52;27.30;45.10
8888;DHT22;4480;52.370;9.748;2022-08-19T14:21:22;27.30;45.20
8888;DHT22;4480;52.370;9.748;2022-08-19T14:23:51;27.40;45.30
8888;DHT22;4480;52.370;9.748;2022-08-19T14:26:19;27.50;45.20
8888;DHT22;4480;52.370;9.748;2022-08-19T14:28:47;27.60;45.00
8888;DHT22;4480;52.370;9.748;2022-08-19T14:31:16;27.60;44.80
8888;DHT22;4480;52.370;9.748;2022-08-19T14:33:45;27.60;43.80
8888;DHT22;4480;52.370;9.748;2022-08-19T14:36:14;27.60;43.30
8888;DHT22;4480;52.370;9.748;2022-08-19T14:38:42;27.50;43.60
8888;DHT22;4480;52.370;9.748;2022-08-19T14:41:13;27.50;44.10
8888;DHT22;4480;52.370;9.748;2022-08-19T14:43:42;27.50;44.40
8888;DHT22;4480;52.370;9.748;2022-08-19T14:46:12;27.50;45.10
8888;DHT22;4480;52.370;9.748;2022-08-19T14:48:40;27.50;44.50
8888;DHT22;4480;52.370;9.748;2022-08-19T14:53:53;27.60;44.40
8888;DHT22;4480;52.370;9.748;2022-08-19T14:56:23;27.60;44.30
8888;DHT22;4480;52.370;9.748;2022-08-19T14:58:51;27.60;44.30
8888;DHT22;4480;52.370;9.748;2022-08-19T15:01:19;27.60;44.20
8888;DHT22;4480;52.370;9.748;2022-08-19T15:03:47;27.60;44.00
8888;DHT22;4480;52.370;9.748;2022-08-19T15:06:15;27.60;44.10
8888;DHT22;4480;52.370;9.748;2022-08-19T15:08:43;27.60;44.00
8888;DHT22;4480;52.370;9.748;2022-08-19T15:11:14;27.60;43.90
8888;DHT22;4480;52.370;9.748;2022-08-19T15:13:43;27.60;44.00
8888;DHT22;4480;52.370;9.748;2022-08-19T15:16:12;27.60;44.00
8888;DHT22;4480;52.370;9.748;2022-08-19T15:18:41;27.70;44.00
8888;DHT22;4480;52.370;9.748;2022-08-19T15:21:10;27.60;43.70
8888;DHT22;4480;52.370;9.748;2022-08-19T15:23:39;27.60;43.70
8888;DHT22;4480;52.370;9.748;2022-08-19T15:26:06;27.40;43.50
8888;DHT22;4480;52.370;9.748;2022-08-19T15:28:36;27.30;43.50
8888;DHT22;4480;52.370;9.748;2022-08-19T15:31:04;27.40;43.80
8888;DHT22;4480;52.370;9.748;2022-08-19T15:33:31;27.40;43.90
8888;DHT22;4480;52.370;9.748;2022-08-19T15:36:00;27.40;44.10
8888;DHT22;4480;52.370;9.748;2022-08-19T15:38:29;27.30;44.10
8888;DHT22;4480;52.370;9.748;2022-08-19T15:40:56;27.30;44.10
8888;DHT22;4480;52.370;9.748;2022-08-19T15:43:45;27.40;44.30
8888;DHT22;4480;52.370;9.748;2022-08-19T15:46:16;27.40;44.20
8888;DHT22;4480;52.370;9.748;2022-08-19T15:48:43;27.40;44.10
8888;DHT22;4480;52.370;9.748;2022-08-19T15:51:11;27.40;44.10
8888;DHT22;4480;52.370;9.748;2022-08-19T15:53:38;27.30;43.90
8888;DHT22;4480;52.370;9.748;2022-08-19T15:56:06;27.20;44.00
8888;DHT22;4480;52.370;9.748;2022-08-19T15:58:33;27.10;44.20
8888;DHT22;4480;52.370;9.748;2022-08-19T16:01:20;27.10;44.30
8888;DHT22;4480;52.370;9.748;2022-08-19T16:04:04;27.10;44.40
8888;DHT22;4480;52.370;9.748;2022-08-19T16:06:51;27.20;44.40
8888;DHT22;4480;52.370;9.748;2022-08-19T16:09:20;27.20;44.30
8888;DHT22;4480;52.370;9.748;2022-08-19T16:11:48;27.30;44.40
8888;DHT22;4480;52.370;9.748;2022-08-19T16:14:16;27.30;44.30
8888;DHT22;4480;52.370;9.748;2022-08-19T16:16:46;27.30;44.20
8888;DHT22;4480;52.370;9.748;2022-08-19T16:19:15;27.30;44.10
8888;DHT22;4480;52.370;9.748;2022-08-19T16:21:43;27.40;44.10
8888;DHT22;4480;52.370;9.748;2022-08-19T16:24:12;27.40;43.90